Mackinaw City, MI (49701)

4:01 AM EST on February 20, 2017 (GMT -0500)
Mackinac Bridge | | Change Station
Active Advisory: Small Craft Advisory

Elev 587 ft 45.79 °N, 84.73 °W | Updated 11 seconds ago

Mostly Cloudy
Mostly Cloudy
30.7 °F
Feels Like 31 °F
N
0.0
Wind Variable Wind from North

Today
High -- | Low -- °F
--% Chance of Precip.
Yesterday
High -- | Low -- °F
Precip. -- in
Pressure 30.24 in
Visibility 10.0 miles
Clouds Clear
Windchill 31 °F
Dew Point 28 °F
Humidity 91%
Rainfall Not available.
Snow Depth Not available.
7:32 AM 6:13 PM
Waning Crescent, 36% visible
METAR KMCD 200855Z AUTO 10009G14KT 10SM CLR 00/M01 A3024 RMK AO2 T00011013
Pressure 30.24 in
Visibility 10.0 miles
Clouds Clear
Windchill 31 °F
Dew Point 28 °F
Humidity 91%
Rainfall Not available.
Snow Depth Not available.
7:32 AM 6:13 PM
Waning Crescent, 36% visible
METAR KMCD 200855Z AUTO 10009G14KT 10SM CLR 00/M01 A3024 RMK AO2 T00011013

Get Your Daily Forecast Email!

Thanks for signing up!

Be on the lookout for a verification email in your inbox.

You'll start receiving the daily forecast at 8 AM.

×

10-Day Weather Forecast

Almanac

Astronomy

Feb. 20, 2017 Rise Set
Actual Time
Civil Twilight
Nautical Twilight
Astronomical Twilight
Moon
Length of Visible Light
Length of Day
Tomorrow will be .
, % of the Moon is Illuminated

Today's Extremes

State Highs State Lows

Community

WunderPhotos

Upload Photos

1,962,540 photos uploaded!

WunderBlog® & News

Nearby

Air Quality

  Air Quality AQ Index Pollutant
Not available.

Snow Depth

Station Depth Elevation

Earthquake Activity

City Distance Mag. Time & Date
Minimum magnitude displayed is 2.5.

Coastal Water Temperatures

Place Temperature

Stations

Nearby Weather Stations

Station Location Temp. Windchill Dew Point Humidity Wind Precip. Elev Updated Type
                   

Watches & Warnings

Small Craft Advisory
Issued: 3:54 AM EST Feb. 20, 2017 – National Weather Service

... Small Craft Advisory in effect from 8 am this morning to 7 am
EST Tuesday...

The National Weather Service in Gaylord has issued a Small Craft
Advisory... which is in effect from 8 am this morning to 7 am EST
Tuesday.

* Please see the latest marine forecasts for more detailed
information.

Precautionary/preparedness actions

Inexperienced mariners... especially those operating smaller
vessels should avoid navigating in these conditions.